Avon, Illinois
Current Conditions -  °F | °C
As of 2:35 PM on Tuesday 27 Jan 2015 (Local Time) from KMQB Reporting Station
Overcast Overcast  
Wind Chill: 25°   Ceiling: 1200
Heat Index: 30°   Visibility: 7mi
Dew Point: 27°   Wind: 5mph
Humidity: 88%   Direction: 50°NE
Pressure: 30.23"   Gusts: NA
Location:  40.66°N, 90.43°W
Report Text: KMQB 272035Z AUTO 05004KT 7SM OVC012 M01/M03 A3023 RMK AO2 T10101027
Loading
Personal Weather Stations






























Interactive Weather Map New forecast layout! Learn more

10-Day Weather Forecast

Advertisements
Track Severe Weather on mobile